Time;durP1;ratioP1;P1;durP2;ratioP2;P2;SDS_P1;SDS_P2;PMS_P1;PMS_P2;Temp;Humidity;BMP_temperature;BMP_pressure;BME280_temperature;BME280_humidity;BME280_pressure;Samples;Min_cycle;Max_cycle;Signal;HPM_P1;HPM_P2
2023/07/08 00:01:17;;;;;;;;;;;;;;;20.81;50.74121;101909.7;;;;-70
2023/07/08 00:06:19;;;;;;;;;;;;;;;20.78;50.52051;101907.7;;;;-69
2023/07/08 00:11:16;;;;;;;;;;;;;;;20.71;50.92383;101901.3;;;;-71
2023/07/08 00:16:18;;;;;;;;;;;;;;;20.62;51.12012;101897.6;;;;-70
2023/07/08 00:21:17;;;;;;;;;;;;;;;20.56;51.21484;101894.6;;;;-69
2023/07/08 00:26:19;;;;;;;;;;;;;;;20.48;52.16602;101896.1;;;;-70
2023/07/08 00:28:12;;;;;;;0.2;0.1;;;;;;;;;;;;;-70
2023/07/08 00:31:16;;;;;;;;;;;;;;;20.45;51.96875;101892.8;;;;-70
2023/07/08 00:36:19;;;;;;;;;;;;;;;20.42;52.1123;101889.9;;;;-69
2023/07/08 00:41:16;;;;;;;;;;;;;;;20.36;52.45996;101888.5;;;;-69
2023/07/08 00:46:21;;;;;;;;;;;;;;;20.29;52.49707;101887.7;;;;-70
2023/07/08 00:51:15;;;;;;;;;;;;;;;20.22;52.69336;101876.2;;;;-70
2023/07/08 00:56:19;;;;;;;;;;;;;;;20.18;52.98535;101869.2;;;;-70
2023/07/08 00:58:14;;;;;;;0.4;0.1;;;;;;;;;;;;;-69
2023/07/08 01:01:15;;;;;;;;;;;;;;;20.13;52.92285;101866.3;;;;-71
2023/07/08 01:06:15;;;;;;;;;;;;;;;20.08;52.85938;101873.1;;;;-69
2023/07/08 01:11:15;;;;;;;;;;;;;;;20;52.82715;101876.1;;;;-70
2023/07/08 01:16:15;;;;;;;;;;;;;;;19.97;53.12109;101872.9;;;;-71
2023/07/08 01:21:27;;;;;;;;;;;;;;;19.92;53.13672;101872.9;;;;-70
2023/07/08 01:26:15;;;;;;;;;;;;;;;19.87;53.12012;101862.8;;;;-70
2023/07/08 01:28:18;;;;;;;0.2;0.1;;;;;;;;;;;;;-69
2023/07/08 01:31:15;;;;;;;;;;;;;;;19.81;53.07715;101857.8;;;;-69
2023/07/08 01:36:16;;;;;;;;;;;;;;;19.73;53.1709;101853.1;;;;-71
2023/07/08 01:41:15;;;;;;;;;;;;;;;19.64;53.63965;101845.3;;;;-68
2023/07/08 01:46:17;;;;;;;;;;;;;;;19.61;53.99805;101839.6;;;;-69
2023/07/08 01:51:15;;;;;;;;;;;;;;;19.61;53.85156;101833.4;;;;-71
2023/07/08 01:56:16;;;;;;;;;;;;;;;19.54;53.69629;101833;;;;-69
2023/07/08 01:58:20;;;;;;;0.3;0.1;;;;;;;;;;;;;-69
2023/07/08 02:01:15;;;;;;;;;;;;;;;19.47;54.00488;101833.3;;;;-70
2023/07/08 02:06:15;;;;;;;;;;;;;;;19.43;54.5459;101828.4;;;;-70
2023/07/08 02:11:15;;;;;;;;;;;;;;;19.38;54.63184;101818.2;;;;-71
2023/07/08 02:16:15;;;;;;;;;;;;;;;19.31;55.07813;101810.9;;;;-69
2023/07/08 02:21:17;;;;;;;;;;;;;;;19.33;54.95508;101807.7;;;;-71
2023/07/08 02:26:15;;;;;;;;;;;;;;;19.31;55.02246;101805.8;;;;-70
2023/07/08 02:28:24;;;;;;;0.4;0.1;;;;;;;;;;;;;-70
2023/07/08 02:31:15;;;;;;;;;;;;;;;19.23;54.99902;101800.8;;;;-70
2023/07/08 02:36:15;;;;;;;;;;;;;;;19.18;55.52832;101793;;;;-68
2023/07/08 02:41:15;;;;;;;;;;;;;;;19.17;55.23145;101795.9;;;;-70
2023/07/08 02:46:15;;;;;;;;;;;;;;;19.12;55.52051;101792.3;;;;-70
2023/07/08 02:51:15;;;;;;;;;;;;;;;19.06;55.89844;101786.1;;;;-70
2023/07/08 02:56:15;;;;;;;;;;;;;;;19.04;55.85059;101786.6;;;;-71
2023/07/08 02:58:26;;;;;;;0.2;0;;;;;;;;;;;;;-70
2023/07/08 03:01:17;;;;;;;;;;;;;;;18.99;55.94629;101787.3;;;;-69
2023/07/08 03:06:16;;;;;;;;;;;;;;;18.97;55.72949;101781.3;;;;-70
2023/07/08 03:11:15;;;;;;;;;;;;;;;18.94;55.90625;101780.3;;;;-69
2023/07/08 03:16:16;;;;;;;;;;;;;;;18.9;55.96973;101783.8;;;;-70
2023/07/08 03:21:15;;;;;;;;;;;;;;;18.86;56.7041;101783.4;;;;-70
2023/07/08 03:26:16;;;;;;;;;;;;;;;18.79;56.19531;101780.5;;;;-70
2023/07/08 03:28:29;;;;;;;0.2;0;;;;;;;;;;;;;-69
2023/07/08 03:31:15;;;;;;;;;;;;;;;18.81;56.32227;101782.3;;;;-70
2023/07/08 03:36:22;;;;;;;;;;;;;;;18.76;56.44043;101778.3;;;;-70
2023/07/08 03:41:14;;;;;;;;;;;;;;;18.68;57.02148;101778.8;;;;-70
2023/07/08 03:46:15;;;;;;;;;;;;;;;18.7;56.7627;101776.6;;;;-67
2023/07/08 03:51:21;;;;;;;;;;;;;;;18.68;56.81641;101775.8;;;;-69
2023/07/08 03:56:16;;;;;;;;;;;;;;;18.66;57.1875;101782.5;;;;-69
2023/07/08 03:58:32;;;;;;;0.2;0;;;;;;;;;;;;;-69
2023/07/08 04:01:18;;;;;;;;;;;;;;;18.63;57.02539;101777.8;;;;-70
2023/07/08 04:06:15;;;;;;;;;;;;;;;18.64;56.77734;101781.8;;;;-71
2023/07/08 04:11:16;;;;;;;;;;;;;;;18.6;57;101789.5;;;;-71
2023/07/08 04:16:18;;;;;;;;;;;;;;;18.6;56.73926;101791.1;;;;-69
2023/07/08 04:21:15;;;;;;;;;;;;;;;18.58;57.05371;101796.6;;;;-70
2023/07/08 04:26:15;;;;;;;;;;;;;;;18.59;56.88477;101795.3;;;;-70
2023/07/08 04:28:35;;;;;;;0.2;0.1;;;;;;;;;;;;;-69
2023/07/08 04:31:14;;;;;;;;;;;;;;;18.61;56.87598;101792.6;;;;-70
2023/07/08 04:36:19;;;;;;;;;;;;;;;18.63;56.79883;101795.2;;;;-71
2023/07/08 04:41:15;;;;;;;;;;;;;;;18.67;56.9502;101796.7;;;;-71
2023/07/08 04:46:21;;;;;;;;;;;;;;;18.64;56.59668;101792;;;;-70
2023/07/08 04:51:15;;;;;;;;;;;;;;;18.7;56.94434;101792.5;;;;-70
2023/07/08 04:56:15;;;;;;;;;;;;;;;18.72;56.69727;101793.4;;;;-70
2023/07/08 04:58:40;;;;;;;0.4;0.2;;;;;;;;;;;;;-73
2023/07/08 05:01:15;;;;;;;;;;;;;;;18.76;57.03027;101790.8;;;;-72
2023/07/08 05:06:15;;;;;;;;;;;;;;;18.81;57.20605;101782.9;;;;-72
2023/07/08 05:11:14;;;;;;;;;;;;;;;18.83;57.0625;101774.6;;;;-71
2023/07/08 05:16:14;;;;;;;;;;;;;;;18.92;56.89355;101780.6;;;;-70
2023/07/08 05:21:15;;;;;;;;;;;;;;;19.02;57.42773;101786.7;;;;-69
2023/07/08 05:26:15;;;;;;;;;;;;;;;19.18;56.9375;101785.6;;;;-69
2023/07/08 05:28:41;;;;;;;0.2;0.1;;;;;;;;;;;;;-70
2023/07/08 05:31:15;;;;;;;;;;;;;;;19.47;56.63281;101784.8;;;;-71
2023/07/08 05:36:15;;;;;;;;;;;;;;;20.06;55.58008;101776.9;;;;-70
2023/07/08 05:41:15;;;;;;;;;;;;;;;20.65;54.10254;101773.3;;;;-70
2023/07/08 05:46:16;;;;;;;;;;;;;;;21.19;52.98047;101776.2;;;;-68
2023/07/08 05:51:15;;;;;;;;;;;;;;;21.68;52.16895;101776.3;;;;-70
2023/07/08 05:56:15;;;;;;;;;;;;;;;22.07;51.41309;101775.4;;;;-70
2023/07/08 05:58:44;;;;;;;0.2;0.1;;;;;;;;;;;;;-72
2023/07/08 06:01:14;;;;;;;;;;;;;;;22.46;50.74707;101769;;;;-71
2023/07/08 06:06:14;;;;;;;;;;;;;;;22.83;50.00781;101776.1;;;;-70
2023/07/08 06:11:14;;;;;;;;;;;;;;;23.21;49.37207;101778.1;;;;-70
2023/07/08 06:16:14;;;;;;;;;;;;;;;23.61;48.50781;101773.5;;;;-72
2023/07/08 06:21:15;;;;;;;;;;;;;;;23.89;48.36426;101773.4;;;;-69
2023/07/08 06:26:14;;;;;;;;;;;;;;;24.24;47.76758;101771.9;;;;-71
2023/07/08 06:28:47;;;;;;;0.2;0;;;;;;;;;;;;;-71
2023/07/08 06:31:15;;;;;;;;;;;;;;;24.54;47.0498;101761.4;;;;-73
2023/07/08 06:36:14;;;;;;;;;;;;;;;24.81;46.60547;101765.3;;;;-70
2023/07/08 06:41:15;;;;;;;;;;;;;;;25.04;46.14355;101768.2;;;;-71
2023/07/08 06:46:15;;;;;;;;;;;;;;;25.2;46.02246;101773.8;;;;-70
2023/07/08 06:51:15;;;;;;;;;;;;;;;25.46;45.55176;101781.4;;;;-70
2023/07/08 06:56:15;;;;;;;;;;;;;;;25.62;45.24316;101769.5;;;;-70
2023/07/08 06:58:51;;;;;;;0.3;0.1;;;;;;;;;;;;;-71
2023/07/08 07:01:14;;;;;;;;;;;;;;;25.77;44.78418;101760.4;;;;-70
2023/07/08 07:06:15;;;;;;;;;;;;;;;26.05;44.52246;101766.4;;;;-72
2023/07/08 07:11:15;;;;;;;;;;;;;;;26.32;43.96973;101768.6;;;;-70
2023/07/08 07:16:14;;;;;;;;;;;;;;;26.53;43.67676;101773.2;;;;-70
2023/07/08 07:21:15;;;;;;;;;;;;;;;26.73;43.37109;101765.7;;;;-68
2023/07/08 07:26:15;;;;;;;;;;;;;;;26.97;43.02344;101769.8;;;;-71
2023/07/08 07:28:56;;;;;;;0.2;0;;;;;;;;;;;;;-70
2023/07/08 07:31:15;;;;;;;;;;;;;;;27.22;42.89648;101761.9;;;;-70
2023/07/08 07:36:17;;;;;;;;;;;;;;;27.51;42.2832;101760.7;;;;-68
2023/07/08 07:41:15;;;;;;;;;;;;;;;27.71;42.2207;101771;;;;-70
2023/07/08 07:46:15;;;;;;;;;;;;;;;27.83;42.19824;101768.4;;;;-68
2023/07/08 07:51:15;;;;;;;;;;;;;;;28.01;42.12109;101763.7;;;;-71
2023/07/08 07:56:17;;;;;;;;;;;;;;;28.21;41.91895;101757.5;;;;-75
2023/07/08 07:59:00;;;;;;;0.2;0;;;;;;;;;;;;;-72
2023/07/08 08:01:15;;;;;;;;;;;;;;;28.32;42.0332;101755.3;;;;-69
2023/07/08 08:06:17;;;;;;;;;;;;;;;28.4;41.88965;101751.3;;;;-71
2023/07/08 08:11:15;;;;;;;;;;;;;;;28.59;41.77734;101756.8;;;;-69
2023/07/08 08:16:14;;;;;;;;;;;;;;;28.82;41.58984;101759.9;;;;-70
2023/07/08 08:21:14;;;;;;;;;;;;;;;28.9;41.58496;101757.6;;;;-73
2023/07/08 08:26:14;;;;;;;;;;;;;;;29.01;41.29199;101741.5;;;;-77
2023/07/08 08:29:05;;;;;;;0.2;0;;;;;;;;;;;;;-73
2023/07/08 08:31:14;;;;;;;;;;;;;;;29.13;41.30176;101740;;;;-74
2023/07/08 08:36:14;;;;;;;;;;;;;;;29.34;40.95996;101742.2;;;;-75
2023/07/08 08:41:18;;;;;;;;;;;;;;;29.59;40.79492;101745.7;;;;-74
2023/07/08 08:46:20;;;;;;;;;;;;;;;29.73;40.85547;101747.7;;;;-74
2023/07/08 08:51:17;;;;;;;;;;;;;;;29.98;40.50293;101750;;;;-75
2023/07/08 08:56:18;;;;;;;;;;;;;;;30.22;40.16113;101757.5;;;;-74
2023/07/08 08:59:13;;;;;;;0.2;0;;;;;;;;;;;;;-73
2023/07/08 09:01:16;;;;;;;;;;;;;;;30.44;39.92285;101772;;;;-73
2023/07/08 09:06:24;;;;;;;;;;;;;;;30.69;39.80469;101777.4;;;;-73
2023/07/08 09:11:21;;;;;;;;;;;;;;;30.89;39.44629;101774.3;;;;-73
2023/07/08 09:16:20;;;;;;;;;;;;;;;31.13;39.18652;101773.8;;;;-72
2023/07/08 09:21:19;;;;;;;;;;;;;;;31.33;39.08594;101780.3;;;;-72
2023/07/08 09:26:17;;;;;;;;;;;;;;;31.48;38.87598;101763.2;;;;-73
2023/07/08 09:29:16;;;;;;;0.2;0.1;;;;;;;;;;;;;-73
2023/07/08 09:31:24;;;;;;;;;;;;;;;31.7;38.69434;101767.1;;;;-73
2023/07/08 09:36:26;;;;;;;;;;;;;;;32;38.32129;101764.5;;;;-72
2023/07/08 09:41:14;;;;;;;;;;;;;;;32.17;38.0166;101761.3;;;;-71
2023/07/08 09:46:16;;;;;;;;;;;;;;;32.44;37.7334;101752.6;;;;-73
2023/07/08 09:51:14;;;;;;;;;;;;;;;32.65;37.50391;101753.7;;;;-72
2023/07/08 09:56:15;;;;;;;;;;;;;;;32.86;37.21387;101760.6;;;;-75
2023/07/08 09:59:22;;;;;;;0.2;0;;;;;;;;;;;;;-73
2023/07/08 10:01:17;;;;;;;;;;;;;;;33.1;36.9043;101765.8;;;;-73
2023/07/08 10:06:20;;;;;;;;;;;;;;;33.28;36.64648;101759.3;;;;-73
2023/07/08 10:11:22;;;;;;;;;;;;;;;33.43;36.72949;101757.9;;;;-73
2023/07/08 10:16:19;;;;;;;;;;;;;;;33.5;36.44043;101766.2;;;;-72
2023/07/08 10:21:18;;;;;;;;;;;;;;;33.59;36.56543;101760.6;;;;-74
2023/07/08 10:26:20;;;;;;;;;;;;;;;33.79;36.47559;101761.4;;;;-73
2023/07/08 10:29:34;;;;;;;0.2;0;;;;;;;;;;;;;-74
2023/07/08 10:31:24;;;;;;;;;;;;;;;33.95;36.08691;101760.6;;;;-73
2023/07/08 10:36:22;;;;;;;;;;;;;;;34.12;36.64355;101758.5;;;;-73
2023/07/08 10:41:18;;;;;;;;;;;;;;;34.28;36.05273;101755.1;;;;-73
2023/07/08 10:46:21;;;;;;;;;;;;;;;34.42;35.96875;101759.6;;;;-74
2023/07/08 10:51:21;;;;;;;;;;;;;;;34.52;36.6875;101751.3;;;;-72
2023/07/08 10:56:18;;;;;;;;;;;;;;;34.71;36.18164;101752.8;;;;-73
2023/07/08 10:59:44;;;;;;;0.2;0;;;;;;;;;;;;;-72
2023/07/08 11:01:21;;;;;;;;;;;;;;;34.96;36.79297;101754.3;;;;-73
2023/07/08 11:06:18;;;;;;;;;;;;;;;35.1;36.47266;101757.3;;;;-72
2023/07/08 11:11:23;;;;;;;;;;;;;;;35.39;37.02832;101745.9;;;;-73
2023/07/08 11:16:19;;;;;;;;;;;;;;;35.5;36.6709;101737;;;;-74
2023/07/08 11:21:17;;;;;;;;;;;;;;;35.73;36.23828;101738.5;;;;-75
2023/07/08 11:26:19;;;;;;;;;;;;;;;35.9;36.63184;101732.7;;;;-75
2023/07/08 11:29:43;;;;;;;0.7;0.1;;;;;;;;;;;;;-73
2023/07/08 11:31:15;;;;;;;;;;;;;;;36.24;35.80371;101733.4;;;;-76
2023/07/08 11:36:16;;;;;;;;;;;;;;;36.46;35.21387;101726.7;;;;-73
2023/07/08 11:41:20;;;;;;;;;;;;;;;36.54;36.25488;101729;;;;-75
2023/07/08 11:46:18;;;;;;;;;;;;;;;36.64;36.04785;101729.9;;;;-74
2023/07/08 11:51:20;;;;;;;;;;;;;;;36.75;36.13965;101727.3;;;;-72
2023/07/08 11:56:26;;;;;;;;;;;;;;;37;35.76758;101735.1;;;;-72
2023/07/08 11:59:47;;;;;;;0.2;0.1;;;;;;;;;;;;;-75
2023/07/08 12:01:23;;;;;;;;;;;;;;;37.18;36.15039;101730.8;;;;-73
2023/07/08 12:06:25;;;;;;;;;;;;;;;37.39;35.94043;101726;;;;-73
2023/07/08 12:11:16;;;;;;;;;;;;;;;37.53;35.52246;101719.2;;;;-72
2023/07/08 12:16:17;;;;;;;;;;;;;;;37.74;35.41992;101714.4;;;;-73
2023/07/08 12:21:17;;;;;;;;;;;;;;;37.86;35.71484;101709;;;;-74
2023/07/08 12:26:17;;;;;;;;;;;;;;;37.93;36.37695;101704.3;;;;-74
2023/07/08 12:29:55;;;;;;;0.1;0;;;;;;;;;;;;;-72
2023/07/08 12:31:20;;;;;;;;;;;;;;;38;35.85645;101705.2;;;;-73
2023/07/08 12:36:20;;;;;;;;;;;;;;;38.11;35.72168;101705.4;;;;-73
2023/07/08 12:41:17;;;;;;;;;;;;;;;38.16;36.13184;101703.1;;;;-74
2023/07/08 12:46:18;;;;;;;;;;;;;;;38.22;36.20801;101701.2;;;;-73
2023/07/08 12:51:20;;;;;;;;;;;;;;;38.32;36.6084;101700.7;;;;-73
2023/07/08 12:56:16;;;;;;;;;;;;;;;38.57;35.33984;101697.6;;;;-74
2023/07/08 13:00:03;;;;;;;0.2;0;;;;;;;;;;;;;-75
2023/07/08 13:01:22;;;;;;;;;;;;;;;38.79;35.83398;101697.2;;;;-74
2023/07/08 13:06:16;;;;;;;;;;;;;;;38.86;35.33789;101694.2;;;;-77
2023/07/08 13:11:17;;;;;;;;;;;;;;;39.09;35.18848;101695.5;;;;-74
2023/07/08 13:16:15;;;;;;;;;;;;;;;39.26;35.64355;101699.8;;;;-76
2023/07/08 13:21:16;;;;;;;;;;;;;;;39.31;35.22852;101694.1;;;;-74
2023/07/08 13:26:21;;;;;;;;;;;;;;;39.47;35.71973;101688.8;;;;-73
2023/07/08 13:30:19;;;;;;;0.2;0;;;;;;;;;;;;;-74
2023/07/08 13:31:21;;;;;;;;;;;;;;;39.54;35.28223;101688.9;;;;-74
2023/07/08 13:36:15;;;;;;;;;;;;;;;39.73;34.43555;101689.2;;;;-74
2023/07/08 13:41:19;;;;;;;;;;;;;;;39.91;34.49707;101686.2;;;;-75
2023/07/08 13:46:25;;;;;;;;;;;;;;;39.78;35.18066;101690.5;;;;-74
2023/07/08 13:51:19;;;;;;;;;;;;;;;39.83;35.23242;101688.6;;;;-75
2023/07/08 13:56:17;;;;;;;;;;;;;;;39.83;34.95703;101687.5;;;;-75
2023/07/08 14:00:16;;;;;;;0.2;0;;;;;;;;;;;;;-75
2023/07/08 14:01:18;;;;;;;;;;;;;;;39.92;34.58105;101690;;;;-74
2023/07/08 14:06:19;;;;;;;;;;;;;;;40.01;34.03613;101687.3;;;;-74
2023/07/08 14:11:17;;;;;;;;;;;;;;;40.07;33.29785;101686.3;;;;-74
2023/07/08 14:16:24;;;;;;;;;;;;;;;40.25;33.14258;101681.9;;;;-74
2023/07/08 14:21:15;;;;;;;;;;;;;;;40.44;33.56348;101684;;;;-73
2023/07/08 14:26:15;;;;;;;;;;;;;;;40.38;33.25977;101685.8;;;;-74
2023/07/08 14:30:24;;;;;;;0.2;0.1;;;;;;;;;;;;;-73
2023/07/08 14:31:18;;;;;;;;;;;;;;;40.4;33.28613;101683;;;;-74
2023/07/08 14:36:15;;;;;;;;;;;;;;;40.35;33.1377;101685.3;;;;-73
2023/07/08 14:41:15;;;;;;;;;;;;;;;40.39;32.78125;101691.7;;;;-75
2023/07/08 14:46:16;;;;;;;;;;;;;;;40.12;32.94238;101690.2;;;;-73
2023/07/08 14:51:14;;;;;;;;;;;;;;;39.71;34.97266;101694.7;;;;-75
2023/07/08 14:56:18;;;;;;;;;;;;;;;39.73;34.24316;101690.6;;;;-74
2023/07/08 15:00:31;;;;;;;0.5;0.3;;;;;;;;;;;;;-74
2023/07/08 15:01:18;;;;;;;;;;;;;;;39.67;34.01172;101695;;;;-74
2023/07/08 15:06:16;;;;;;;;;;;;;;;39.58;34.00488;101692.5;;;;-73
2023/07/08 15:11:16;;;;;;;;;;;;;;;39.48;33.65039;101687;;;;-76
2023/07/08 15:16:16;;;;;;;;;;;;;;;39.44;33.21582;101684;;;;-76
2023/07/08 15:21:15;;;;;;;;;;;;;;;39.43;32.65332;101681.1;;;;-74
2023/07/08 15:26:17;;;;;;;;;;;;;;;39.44;33.15625;101686.8;;;;-75
2023/07/08 15:30:39;;;;;;;0.1;0;;;;;;;;;;;;;-73
2023/07/08 15:31:16;;;;;;;;;;;;;;;39.31;32.82422;101681.5;;;;-74
2023/07/08 15:36:15;;;;;;;;;;;;;;;39.1;32.69043;101683.9;;;;-75
2023/07/08 15:41:23;;;;;;;;;;;;;;;38.81;32.8125;101675.8;;;;-74
2023/07/08 15:46:15;;;;;;;;;;;;;;;38.58;32.77246;101676;;;;-75
2023/07/08 15:51:18;;;;;;;;;;;;;;;38.55;33.06836;101673.8;;;;-74
2023/07/08 15:56:16;;;;;;;;;;;;;;;38.58;31.79297;101673;;;;-74
2023/07/08 16:00:47;;;;;;;0.2;0;;;;;;;;;;;;;-73
2023/07/08 16:01:20;;;;;;;;;;;;;;;38.55;32.43555;101671.7;;;;-74
2023/07/08 16:06:15;;;;;;;;;;;;;;;38.53;32.20801;101670.3;;;;-74
2023/07/08 16:11:18;;;;;;;;;;;;;;;38.12;32.48926;101666.1;;;;-73
2023/07/08 16:16:15;;;;;;;;;;;;;;;37.66;33.8291;101666.9;;;;-73
2023/07/08 16:21:15;;;;;;;;;;;;;;;37.28;34.87207;101670.8;;;;-72
2023/07/08 16:26:17;;;;;;;;;;;;;;;36.93;35.65527;101664.4;;;;-72
2023/07/08 16:30:54;;;;;;;0.3;0;;;;;;;;;;;;;-73
2023/07/08 16:31:17;;;;;;;;;;;;;;;36.68;36.36133;101664.2;;;;-74
2023/07/08 16:36:19;;;;;;;;;;;;;;;36.51;36.62109;101657.6;;;;-74
2023/07/08 16:41:16;;;;;;;;;;;;;;;36.35;37.09473;101659.7;;;;-74
2023/07/08 16:46:16;;;;;;;;;;;;;;;36.21;37.0957;101658.4;;;;-73
2023/07/08 16:51:18;;;;;;;;;;;;;;;36.06;36.8457;101661.6;;;;-73
2023/07/08 16:56:16;;;;;;;;;;;;;;;35.88;37.04492;101665;;;;-73
2023/07/08 17:01:02;;;;;;;0.1;0;;;;;;;;;;;;;-72
2023/07/08 17:01:17;;;;;;;;;;;;;;;35.72;37.24512;101665.6;;;;-73
2023/07/08 17:06:14;;;;;;;;;;;;;;;35.58;37.11523;101662;;;;-73
2023/07/08 17:11:15;;;;;;;;;;;;;;;35.42;37.09082;101659.1;;;;-75
2023/07/08 17:16:17;;;;;;;;;;;;;;;35.29;36.52344;101660.9;;;;-72
2023/07/08 17:21:16;;;;;;;;;;;;;;;35.12;36.93652;101657.6;;;;-73
2023/07/08 17:26:14;;;;;;;;;;;;;;;34.98;36.90137;101657.2;;;;-73
2023/07/08 17:31:09;;;;;;;0.2;0;;;;;;;;;;;;;-74
2023/07/08 17:31:21;;;;;;;;;;;;;;;34.87;37.2832;101649.9;;;;-73
2023/07/08 17:36:16;;;;;;;;;;;;;;;34.83;37.3623;101642.9;;;;-73
2023/07/08 17:41:16;;;;;;;;;;;;;;;34.79;37.67871;101643.6;;;;-76
2023/07/08 17:46:16;;;;;;;;;;;;;;;34.73;37.79199;101645.8;;;;-75
2023/07/08 17:51:15;;;;;;;;;;;;;;;34.6;37.88867;101645.4;;;;-74
2023/07/08 17:56:20;;;;;;;;;;;;;;;34.48;38.09082;101642.4;;;;-72
2023/07/08 18:01:16;;;;;;;;;;;;;;;34.35;38.30469;101645.1;;;;-74
2023/07/08 18:01:27;;;;;;;0.5;0.3;;;;;;;;;;;;;-74
2023/07/08 18:06:15;;;;;;;;;;;;;;;34.19;38.59766;101636.8;;;;-73
2023/07/08 18:11:15;;;;;;;;;;;;;;;34.05;38.88281;101646.5;;;;-73
2023/07/08 18:16:18;;;;;;;;;;;;;;;33.9;39.03516;101647.6;;;;-74
2023/07/08 18:21:18;;;;;;;;;;;;;;;33.72;39.20898;101651.9;;;;-74
2023/07/08 18:26:17;;;;;;;;;;;;;;;33.54;39.46484;101655.3;;;;-75
2023/07/08 18:31:17;;;;;;;;;;;;;;;33.39;39.66309;101658.1;;;;-75
2023/07/08 18:31:30;;;;;;;0.1;0;;;;;;;;;;;;;-75
2023/07/08 18:36:20;;;;;;;;;;;;;;;33.21;39.84766;101663.8;;;;-73
2023/07/08 18:41:18;;;;;;;;;;;;;;;33.06;39.75293;101660.9;;;;-75
2023/07/08 18:46:16;;;;;;;;;;;;;;;32.92;39.68164;101662;;;;-73
2023/07/08 18:51:18;;;;;;;;;;;;;;;32.77;39.71582;101666.3;;;;-75
2023/07/08 18:56:18;;;;;;;;;;;;;;;32.56;39.93262;101665.6;;;;-75
2023/07/08 19:01:17;;;;;;;;;;;;;;;32.36;39.96191;101666.7;;;;-75
2023/07/08 19:01:28;;;;;;;0.3;0.1;;;;;;;;;;;;;-74
2023/07/08 19:06:16;;;;;;;;;;;;;;;32.14;39.93164;101669.3;;;;-75
2023/07/08 19:11:20;;;;;;;;;;;;;;;31.92;39.92383;101672;;;;-74
2023/07/08 19:16:17;;;;;;;;;;;;;;;31.72;39.87109;101679.2;;;;-75
2023/07/08 19:21:19;;;;;;;;;;;;;;;31.46;40.12988;101680.5;;;;-75
2023/07/08 19:26:15;;;;;;;;;;;;;;;31.2;40.38965;101680.6;;;;-73
2023/07/08 19:31:21;;;;;;;;;;;;;;;30.94;41.19824;101686.4;;;;-77
2023/07/08 19:31:36;;;;;;;0.1;0;;;;;;;;;;;;;-74
2023/07/08 19:36:20;;;;;;;;;;;;;;;30.7;41.33984;101695.3;;;;-73
2023/07/08 19:41:15;;;;;;;;;;;;;;;30.47;41.30664;101698.6;;;;-69
2023/07/08 19:46:18;;;;;;;;;;;;;;;30.24;41.42773;101698.1;;;;-69
2023/07/08 19:51:15;;;;;;;;;;;;;;;30.01;41.41797;101700.1;;;;-71
2023/07/08 19:56:20;;;;;;;;;;;;;;;29.78;41.72363;101696.9;;;;-69
2023/07/08 20:01:15;;;;;;;;;;;;;;;29.56;41.50586;101691.3;;;;-69
2023/07/08 20:01:39;;;;;;;0.5;0.3;;;;;;;;;;;;;-69
2023/07/08 20:06:21;;;;;;;;;;;;;;;29.34;42.01074;101690.2;;;;-68
2023/07/08 20:11:15;;;;;;;;;;;;;;;29.13;41.78125;101695.7;;;;-69
2023/07/08 20:16:19;;;;;;;;;;;;;;;28.91;42.21582;101688.7;;;;-71
2023/07/08 20:21:15;;;;;;;;;;;;;;;28.71;41.94141;101691.5;;;;-71
2023/07/08 20:26:25;;;;;;;;;;;;;;;28.53;42.21582;101702.1;;;;-71
2023/07/08 20:31:15;;;;;;;;;;;;;;;28.35;42.52539;101707.3;;;;-69
2023/07/08 20:31:45;;;;;;;0.3;0.1;;;;;;;;;;;;;-71
2023/07/08 20:36:17;;;;;;;;;;;;;;;28.18;42.54492;101707;;;;-69
2023/07/08 20:41:16;;;;;;;;;;;;;;;28.02;42.83203;101702.2;;;;-73
2023/07/08 20:46:21;;;;;;;;;;;;;;;27.85;42.87402;101707.5;;;;-69
2023/07/08 20:51:18;;;;;;;;;;;;;;;27.7;43.15039;101711.2;;;;-70
2023/07/08 20:56:18;;;;;;;;;;;;;;;27.54;43.34473;101711;;;;-69
2023/07/08 21:01:14;;;;;;;;;;;;;;;27.4;43.66797;101712.2;;;;-70
2023/07/08 21:01:51;;;;;;;0.3;0.1;;;;;;;;;;;;;-70
2023/07/08 21:06:18;;;;;;;;;;;;;;;27.26;43.90918;101709.5;;;;-70
2023/07/08 21:11:14;;;;;;;;;;;;;;;27.11;43.96387;101715.7;;;;-70
2023/07/08 21:16:18;;;;;;;;;;;;;;;26.98;44.12695;101724.5;;;;-73
2023/07/08 21:21:15;;;;;;;;;;;;;;;26.83;44.2627;101719.6;;;;-68
2023/07/08 21:26:20;;;;;;;;;;;;;;;26.68;44.7002;101716.1;;;;-71
2023/07/08 21:31:15;;;;;;;;;;;;;;;26.55;44.9668;101718.8;;;;-69
2023/07/08 21:31:54;;;;;;;0.4;0;;;;;;;;;;;;;-70
2023/07/08 21:36:22;;;;;;;;;;;;;;;26.43;45.18555;101715.1;;;;-70
2023/07/08 21:41:14;;;;;;;;;;;;;;;26.26;45.38965;101711.7;;;;-70
2023/07/08 21:46:14;;;;;;;;;;;;;;;26.16;45.61035;101711.1;;;;-71
2023/07/08 21:51:20;;;;;;;;;;;;;;;26.02;45.74707;101711.6;;;;-69
2023/07/08 21:56:15;;;;;;;;;;;;;;;25.9;45.8623;101717.5;;;;-70
2023/07/08 22:01:19;;;;;;;;;;;;;;;25.76;46.22949;101720.4;;;;-69
2023/07/08 22:01:59;;;;;;;0.6;0.3;;;;;;;;;;;;;-68
2023/07/08 22:06:14;;;;;;;;;;;;;;;25.67;46.86719;101719;;;;-70
2023/07/08 22:11:18;;;;;;;;;;;;;;;25.56;46.82129;101724.4;;;;-70
2023/07/08 22:16:15;;;;;;;;;;;;;;;25.44;46.43945;101729.7;;;;-70
2023/07/08 22:21:17;;;;;;;;;;;;;;;25.32;46.55469;101735.4;;;;-70
2023/07/08 22:26:14;;;;;;;;;;;;;;;25.25;46.95215;101743.8;;;;-71
2023/07/08 22:31:24;;;;;;;;;;;;;;;25.18;47.46387;101755.4;;;;-69
2023/07/08 22:32:03;;;;;;;0.2;0.1;;;;;;;;;;;;;-70
2023/07/08 22:36:15;;;;;;;;;;;;;;;25.09;47.75488;101765.7;;;;-72
2023/07/08 22:41:15;;;;;;;;;;;;;;;25.01;47.93066;101760.8;;;;-72
2023/07/08 22:46:15;;;;;;;;;;;;;;;24.96;48.13379;101757.6;;;;-73
2023/07/08 22:51:16;;;;;;;;;;;;;;;24.85;48.29492;101759.9;;;;-73
2023/07/08 22:56:19;;;;;;;;;;;;;;;24.79;48.78418;101761.3;;;;-73
2023/07/08 23:01:14;;;;;;;;;;;;;;;24.74;49.2168;101754.8;;;;-74
2023/07/08 23:02:07;;;;;;;1;0.4;;;;;;;;;;;;;-73
2023/07/08 23:06:16;;;;;;;;;;;;;;;24.69;49.02832;101758.3;;;;-70
2023/07/08 23:11:16;;;;;;;;;;;;;;;24.61;49.14453;101767.1;;;;-70
2023/07/08 23:16:26;;;;;;;;;;;;;;;24.55;49.09277;101766.7;;;;-71
2023/07/08 23:21:15;;;;;;;;;;;;;;;24.5;49.09863;101765.6;;;;-70
2023/07/08 23:26:16;;;;;;;;;;;;;;;24.48;48.94727;101765.4;;;;-69
2023/07/08 23:31:15;;;;;;;;;;;;;;;24.39;49.19043;101759.3;;;;-72
2023/07/08 23:32:12;;;;;;;0.5;0.3;;;;;;;;;;;;;-70
2023/07/08 23:36:21;;;;;;;;;;;;;;;24.34;48.9082;101752.7;;;;-70
2023/07/08 23:41:15;;;;;;;;;;;;;;;24.27;48.98145;101749.8;;;;-69
2023/07/08 23:46:18;;;;;;;;;;;;;;;24.22;49.06738;101749.2;;;;-70
2023/07/08 23:51:14;;;;;;;;;;;;;;;24.18;49.57031;101742.5;;;;-70
2023/07/08 23:56:16;;;;;;;;;;;;;;;24.12;49.36914;101737;;;;-69
